Time;durP1;ratioP1;P1;durP2;ratioP2;P2;SDS_P1;SDS_P2;PMS_P1;PMS_P2;Temp;Humidity;BMP_temperature;BMP_pressure;BME280_temperature;BME280_humidity;BME280_pressure;Samples;Min_cycle;Max_cycle;Signal;HPM_P1;HPM_P2
2021/10/30 00:01:26;;;;;;;4.62;4.43;;;;;;;11.55;77.13;100289.66;4428364;32;20087;-68
2021/10/30 00:03:51;;;;;;;4.65;4.45;;;;;;;11.55;77.63;100292.28;4420979;31;20067;-68
2021/10/30 00:06:17;;;;;;;4.70;4.50;;;;;;;11.56;77.57;100302.66;4431527;32;20382;-68
2021/10/30 00:08:43;;;;;;;4.50;4.30;;;;;;;11.55;77.47;100290.50;4425995;32;20557;-68
2021/10/30 00:11:08;;;;;;;4.90;4.70;;;;;;;11.52;77.37;100282.78;4422711;32;20061;-68
2021/10/30 00:13:33;;;;;;;6.12;5.82;;;;;;;11.53;77.20;100273.12;4425915;32;20086;-70
2021/10/30 00:15:59;;;;;;;4.72;4.53;;;;;;;11.49;77.20;100263.75;4421846;32;20064;-67
2021/10/30 00:18:25;;;;;;;4.60;4.40;;;;;;;11.46;77.24;100272.66;4424413;32;20292;-70
2021/10/30 00:20:50;;;;;;;4.80;4.60;;;;;;;11.45;78.03;100280.66;4424963;32;20589;-68
2021/10/30 00:23:16;;;;;;;4.65;4.45;;;;;;;11.45;77.36;100268.34;4426445;32;20128;-69
2021/10/30 00:25:41;;;;;;;6.40;6.00;;;;;;;11.44;77.38;100258.78;4421159;32;20430;-69
2021/10/30 00:28:07;;;;;;;4.60;4.40;;;;;;;11.43;77.36;100269.41;4423334;32;20168;-70
2021/10/30 00:30:32;;;;;;;6.03;5.72;;;;;;;11.46;77.47;100271.81;4422092;32;20060;-68
2021/10/30 00:32:58;;;;;;;4.50;4.30;;;;;;;11.44;77.34;100274.53;4424480;32;20078;-67
2021/10/30 00:35:23;;;;;;;4.40;4.20;;;;;;;11.42;77.74;100273.78;4417507;32;20442;-68
2021/10/30 00:37:48;;;;;;;4.90;4.70;;;;;;;11.44;76.86;100256.16;4420228;32;20594;-67
2021/10/30 00:40:14;;;;;;;4.82;4.62;;;;;;;11.47;76.38;100250.72;4427301;32;20086;-68
2021/10/30 00:42:39;;;;;;;4.28;4.07;;;;;;;11.41;76.10;100231.88;4420193;32;20055;-68
2021/10/30 00:45:05;;;;;;;4.50;4.30;;;;;;;11.45;76.63;100257.00;4418806;32;20330;-67
2021/10/30 00:47:31;;;;;;;5.72;5.43;;;;;;;11.42;76.98;100257.19;4439199;32;20895;-68
2021/10/30 00:49:56;;;;;;;4.37;4.18;;;;;;;11.40;76.93;100259.06;4419628;32;20064;-68
2021/10/30 00:52:22;;;;;;;4.50;4.30;;;;;;;11.39;76.78;100247.72;4421671;32;20071;-67
2021/10/30 00:54:47;;;;;;;4.60;4.40;;;;;;;11.36;76.57;100245.28;4415410;32;20088;-68
2021/10/30 00:57:12;;;;;;;4.40;4.20;;;;;;;11.28;77.19;100245.75;4424445;32;20111;-68
2021/10/30 00:59:38;;;;;;;4.57;4.37;;;;;;;11.20;77.29;100241.94;4423778;31;20078;-68
2021/10/30 01:02:03;;;;;;;4.87;4.68;;;;;;;11.07;77.33;100232.19;4422729;32;20067;-67
2021/10/30 01:04:30;;;;;;;5.75;5.47;;;;;;;10.98;77.89;100240.63;4418569;32;20068;-65
2021/10/30 01:06:55;;;;;;;4.37;4.18;;;;;;;10.96;78.45;100247.75;4431175;32;20064;-68
2021/10/30 01:09:21;;;;;;;4.30;4.10;;;;;;;10.92;78.54;100246.25;4417346;32;20094;-67
2021/10/30 01:11:46;;;;;;;4.60;4.40;;;;;;;10.98;77.54;100240.63;4418864;31;20154;-68
2021/10/30 01:14:12;;;;;;;4.37;4.18;;;;;;;11.01;77.77;100239.59;4422968;32;20573;-68
2021/10/30 01:16:37;;;;;;;6.28;5.97;;;;;;;11.02;77.69;100234.25;4435347;32;20224;-68
2021/10/30 01:19:03;;;;;;;4.70;4.50;;;;;;;11.03;77.73;100235.09;4427927;32;20157;-68
2021/10/30 01:21:33;;;;;;;4.53;4.32;;;;;;;11.01;77.31;100240.44;4422349;32;20071;-68
2021/10/30 01:23:58;;;;;;;5.22;5.00;;;;;;;11.01;77.31;100243.06;4426441;32;20835;-67
2021/10/30 01:26:25;;;;;;;4.40;4.20;;;;;;;11.01;77.59;100224.69;4424801;32;20243;-70
2021/10/30 01:28:51;;;;;;;4.85;4.45;;;;;;;10.86;77.64;100204.62;4421282;32;20086;-68
2021/10/30 01:31:17;;;;;;;4.50;4.30;;;;;;;11.00;78.31;100219.53;4427884;32;20302;-70
2021/10/30 01:33:45;;;;;;;5.60;5.40;;;;;;;10.98;77.53;100219.59;4425440;32;20084;-69
2021/10/30 01:36:11;;;;;;;4.32;4.12;;;;;;;10.95;77.66;100217.19;4427308;32;20075;-70
2021/10/30 01:38:37;;;;;;;5.55;5.35;;;;;;;10.93;78.14;100229.56;4423185;32;20788;-68
2021/10/30 01:41:03;;;;;;;5.00;4.60;;;;;;;10.92;77.87;100214.75;4424860;32;20121;-69
2021/10/30 01:43:29;;;;;;;4.68;4.47;;;;;;;10.84;78.73;100209.13;4429515;32;20082;-70
2021/10/30 01:45:54;;;;;;;5.85;5.55;;;;;;;10.87;78.07;100215.03;4422083;32;20677;-69
2021/10/30 01:48:20;;;;;;;4.30;4.10;;;;;;;10.88;78.20;100200.94;4426009;32;20076;-69
2021/10/30 01:50:45;;;;;;;5.90;5.65;;;;;;;10.91;78.12;100197.31;4421297;32;20569;-69
2021/10/30 01:53:11;;;;;;;4.32;4.12;;;;;;;10.86;78.43;100188.88;4424853;32;20068;-70
2021/10/30 01:55:38;;;;;;;5.37;5.07;;;;;;;10.83;78.23;100174.16;4422148;32;20454;-70
2021/10/30 01:58:04;;;;;;;4.30;4.10;;;;;;;10.81;78.71;100159.44;4421022;32;20214;-67
2021/10/30 02:00:29;;;;;;;4.85;4.57;;;;;;;10.69;79.30;100156.63;4424384;32;20075;-70
2021/10/30 02:02:55;;;;;;;5.15;4.95;;;;;;;10.69;79.08;100156.63;4418821;32;20095;-68
2021/10/30 02:05:20;;;;;;;4.47;4.28;;;;;;;10.74;79.38;100165.06;4429707;32;20645;-68
2021/10/30 02:07:45;;;;;;;5.75;5.53;;;;;;;10.70;79.49;100160.94;4425632;32;20883;-68
2021/10/30 02:10:12;;;;;;;4.50;4.30;;;;;;;10.72;79.44;100166.94;4421613;32;20071;-68
2021/10/30 02:12:37;;;;;;;5.12;4.82;;;;;;;10.75;79.59;100164.12;4427596;32;20068;-69
2021/10/30 02:15:03;;;;;;;4.40;4.20;;;;;;;10.72;79.39;100161.69;4424044;31;20553;-69
2021/10/30 02:17:29;;;;;;;4.75;4.45;;;;;;;10.73;79.25;100163.38;4440494;32;20094;-69
2021/10/30 02:19:54;;;;;;;5.68;5.32;;;;;;;10.76;79.51;100157.09;4421780;32;20068;-68
2021/10/30 02:22:19;;;;;;;4.40;4.20;;;;;;;10.70;79.04;100173.22;4436724;32;20060;-69
2021/10/30 02:24:45;;;;;;;6.12;5.82;;;;;;;10.75;78.60;100145.75;4423106;32;20076;-69
2021/10/30 02:27:10;;;;;;;4.40;4.20;;;;;;;10.78;78.95;100139.47;4423705;32;20746;-69
2021/10/30 02:29:35;;;;;;;4.45;4.22;;;;;;;10.69;78.60;100119.88;4426578;32;20082;-69
2021/10/30 02:32:02;;;;;;;4.20;4.00;;;;;;;10.68;78.62;100123.44;4421806;32;20673;-69
2021/10/30 02:34:28;;;;;;;4.50;4.30;;;;;;;10.77;78.75;100117.63;4428230;32;20100;-68
2021/10/30 02:36:53;;;;;;;6.03;5.62;;;;;;;10.75;78.63;100105.56;4422890;32;20068;-69
2021/10/30 02:39:19;;;;;;;4.95;4.65;;;;;;;10.73;78.95;100108.25;4420564;32;20597;-68
2021/10/30 02:41:44;;;;;;;5.85;5.57;;;;;;;10.79;78.93;100117.53;4424337;32;20091;-69
2021/10/30 02:44:09;;;;;;;4.50;4.30;;;;;;;10.76;78.88;100123.84;4418278;32;20170;-69
2021/10/30 02:46:35;;;;;;;4.53;4.32;;;;;;;10.76;78.68;100100.22;4424444;32;20565;-69
2021/10/30 02:49:00;;;;;;;4.97;4.68;;;;;;;10.80;78.77;100092.97;4417007;32;20067;-68
2021/10/30 02:51:26;;;;;;;4.53;4.28;;;;;;;10.82;78.48;100096.34;4421342;32;20073;-69
2021/10/30 02:53:51;;;;;;;5.60;5.40;;;;;;;10.83;78.25;100090.16;4437557;31;20227;-69
2021/10/30 02:56:16;;;;;;;4.10;3.90;;;;;;;10.87;78.14;100091.66;4425066;32;20426;-68
2021/10/30 02:58:42;;;;;;;6.03;5.72;;;;;;;10.32;77.83;99998.03;4423629;32;20144;-68
2021/10/30 03:01:07;;;;;;;4.50;4.30;;;;;;;10.90;77.81;100086.19;4425574;32;20164;-68
2021/10/30 03:03:32;;;;;;;4.18;3.97;;;;;;;10.88;77.66;100081.97;4419518;32;20088;-69
2021/10/30 03:05:58;;;;;;;4.60;4.40;;;;;;;10.88;77.32;100076.72;4426103;32;20073;-69
2021/10/30 03:08:23;;;;;;;4.60;4.30;;;;;;;10.87;78.21;100078.53;4420964;32;20071;-68
2021/10/30 03:10:48;;;;;;;6.10;5.80;;;;;;;10.88;77.82;100064.44;4429401;32;20075;-69
2021/10/30 03:13:14;;;;;;;4.40;4.20;;;;;;;10.88;78.29;100066.22;4422174;32;20835;-68
2021/10/30 03:15:39;;;;;;;5.37;5.18;;;;;;;10.89;78.50;100078.44;4421842;32;20405;-69
2021/10/30 03:18:05;;;;;;;4.40;4.20;;;;;;;10.85;78.21;100071.69;4423417;32;20052;-69
2021/10/30 03:20:30;;;;;;;4.32;4.12;;;;;;;10.84;78.55;100077.87;4421853;32;20672;-68
2021/10/30 03:22:55;;;;;;;4.72;4.53;;;;;;;10.94;78.37;100082.47;4422046;32;20092;-69
2021/10/30 03:25:21;;;;;;;4.60;4.40;;;;;;;10.90;79.08;100075.69;4422970;32;20087;-69
2021/10/30 03:27:46;;;;;;;6.82;6.37;;;;;;;10.93;79.15;100075.50;4424079;32;20068;-69
2021/10/30 03:30:12;;;;;;;4.40;4.20;;;;;;;10.96;79.51;100079.72;4420764;32;20148;-69
2021/10/30 03:32:37;;;;;;;5.20;4.90;;;;;;;10.97;80.41;100074.37;4417310;32;20060;-69
2021/10/30 03:35:03;;;;;;;4.80;4.60;;;;;;;10.98;80.50;100078.69;4419516;32;20091;-70
2021/10/30 03:37:28;;;;;;;4.95;4.75;;;;;;;10.93;80.81;100075.50;4426744;32;20087;-68
2021/10/30 03:39:53;;;;;;;5.37;5.18;;;;;;;10.86;81.47;100086.50;4424073;32;20087;-69
2021/10/30 03:42:19;;;;;;;4.70;4.50;;;;;;;10.80;81.81;100073.75;4423187;32;20529;-69
2021/10/30 03:44:44;;;;;;;6.35;6.05;;;;;;;10.44;81.81;100017.41;4423866;32;20111;-69
2021/10/30 03:47:09;;;;;;;4.15;3.95;;;;;;;10.82;82.24;100069.25;4424177;32;20666;-68
2021/10/30 03:49:35;;;;;;;4.60;4.40;;;;;;;10.80;83.17;100079.00;4425454;32;22112;-68
2021/10/30 03:52:00;;;;;;;6.45;6.15;;;;;;;10.78;83.41;100076.47;4422672;32;20095;-68
2021/10/30 03:54:26;;;;;;;4.80;4.60;;;;;;;10.66;85.25;100077.25;4421643;32;20069;-68
2021/10/30 03:56:52;;;;;;;4.90;4.70;;;;;;;9.48;86.69;99901.78;4426826;32;20060;-69
2021/10/30 03:59:17;;;;;;;4.35;4.15;;;;;;;10.60;86.92;100083.72;4423262;32;20156;-68
2021/10/30 04:01:43;;;;;;;4.40;4.20;;;;;;;10.48;86.76;100066.09;4423298;32;20117;-68
2021/10/30 04:04:08;;;;;;;5.72;5.50;;;;;;;10.55;86.95;100084.00;4421175;32;20417;-68
2021/10/30 04:06:34;;;;;;;4.45;4.25;;;;;;;10.54;87.92;100084.09;4421508;32;20090;-68
2021/10/30 04:08:59;;;;;;;6.20;5.90;;;;;;;10.50;88.77;100088.72;4417911;32;20069;-67
2021/10/30 04:11:24;;;;;;;4.95;4.75;;;;;;;10.52;88.66;100081.59;4420890;32;20206;-67
2021/10/30 04:13:50;;;;;;;5.20;4.90;;;;;;;10.54;88.34;100074.47;4426811;32;21279;-68
2021/10/30 04:16:16;;;;;;;4.60;4.40;;;;;;;10.50;89.26;100079.97;4421806;32;20455;-67
2021/10/30 04:18:43;;;;;;;4.70;4.50;;;;;;;10.49;89.01;100070.44;4423043;31;20103;-67
2021/10/30 04:21:10;;;;;;;6.47;6.18;;;;;;;10.46;89.87;100073.22;4419388;32;20497;-67
2021/10/30 04:23:35;;;;;;;4.22;4.03;;;;;;;10.41;91.29;100077.94;4425761;32;20180;-67
2021/10/30 04:26:00;;;;;;;6.60;6.15;;;;;;;10.41;90.92;100075.31;4417947;32;20647;-68
2021/10/30 04:28:26;;;;;;;4.80;4.60;;;;;;;10.37;90.71;100072.03;4419490;32;20083;-67
2021/10/30 04:30:51;;;;;;;4.18;3.97;;;;;;;10.35;91.84;100063.41;4423629;32;20108;-67
2021/10/30 04:33:17;;;;;;;4.45;4.25;;;;;;;10.36;91.78;100049.34;4418598;32;20710;-67
2021/10/30 04:35:43;;;;;;;4.40;4.20;;;;;;;10.34;91.57;100044.22;4423010;32;20096;-70
2021/10/30 04:38:08;;;;;;;4.15;3.95;;;;;;;10.31;92.33;100033.91;4422186;32;20162;-67
2021/10/30 04:40:35;;;;;;;4.70;4.50;;;;;;;10.27;91.42;100019.25;4421271;32;20095;-68
2021/10/30 04:43:00;;;;;;;6.50;6.20;;;;;;;10.27;91.71;100036.78;4421012;32;20068;-67
2021/10/30 04:45:26;;;;;;;4.70;4.50;;;;;;;10.32;92.01;100037.34;4421576;32;20146;-68
2021/10/30 04:47:51;;;;;;;4.40;4.20;;;;;;;10.13;91.82;100004.38;4420132;32;20661;-67
2021/10/30 04:50:16;;;;;;;4.50;4.30;;;;;;;10.23;91.83;100004.66;4413189;32;20083;-67
2021/10/30 04:52:45;;;;;;;4.40;4.20;;;;;;;10.23;92.33;100017.75;4404211;32;20089;-68
2021/10/30 04:55:10;;;;;;;5.10;4.90;;;;;;;10.25;92.16;100004.56;4403462;32;20168;-68
2021/10/30 04:57:36;;;;;;;4.35;4.15;;;;;;;10.32;91.02;100006.75;4406821;32;20131;-67
2021/10/30 05:00:03;;;;;;;6.25;5.95;;;;;;;10.31;90.23;100005.06;4401747;32;20803;-67
2021/10/30 05:02:28;;;;;;;4.60;4.40;;;;;;;10.32;90.70;99990.16;4409105;32;20060;-70
2021/10/30 05:04:53;;;;;;;4.75;4.55;;;;;;;10.18;90.80;99970.87;4407813;32;20616;-68
2021/10/30 05:07:19;;;;;;;4.45;4.25;;;;;;;10.27;90.78;99993.03;4412833;32;20100;-68
2021/10/30 05:09:44;;;;;;;4.30;4.10;;;;;;;10.30;90.73;99995.50;4410290;32;20084;-68
2021/10/30 05:12:10;;;;;;;5.45;5.22;;;;;;;10.25;90.90;99992.28;4405674;32;20506;-67
2021/10/30 05:14:35;;;;;;;4.75;4.55;;;;;;;10.23;90.91;99991.53;4407293;32;20099;-67
2021/10/30 05:17:01;;;;;;;5.97;5.68;;;;;;;10.19;91.39;99980.41;4409076;32;20084;-68
2021/10/30 05:19:26;;;;;;;4.30;4.10;;;;;;;10.19;90.82;99976.94;4407710;32;20068;-67
2021/10/30 05:21:51;;;;;;;4.45;4.25;;;;;;;10.30;90.06;99977.16;4410913;32;20071;-67
2021/10/30 05:24:17;;;;;;;4.20;4.00;;;;;;;10.30;90.22;99971.03;4406163;32;21145;-69
2021/10/30 05:26:42;;;;;;;4.80;4.60;;;;;;;10.29;89.52;99970.19;4411312;32;20061;-68
2021/10/30 05:29:07;;;;;;;7.03;6.47;;;;;;;10.27;89.73;99965.97;4405695;32;20682;-67
2021/10/30 05:31:33;;;;;;;4.40;4.20;;;;;;;10.31;89.74;99965.72;4410094;32;20367;-67
2021/10/30 05:33:58;;;;;;;5.62;5.43;;;;;;;10.27;89.24;99958.94;4404181;32;20074;-67
2021/10/30 05:36:26;;;;;;;4.47;4.28;;;;;;;10.31;88.78;99955.22;4406691;32;20060;-67
2021/10/30 05:38:53;;;;;;;4.18;3.97;;;;;;;10.22;87.85;99929.53;4411302;32;20226;-68
2021/10/30 05:41:19;;;;;;;4.30;4.10;;;;;;;10.50;87.18;99946.19;4421401;32;20424;-67
2021/10/30 05:43:44;;;;;;;4.75;4.55;;;;;;;9.35;86.26;99760.28;4412182;32;20809;-67
2021/10/30 05:46:09;;;;;;;5.45;5.25;;;;;;;10.51;86.65;99945.25;4407825;32;20068;-70
2021/10/30 05:48:36;;;;;;;4.35;4.15;;;;;;;10.51;86.64;99945.25;4404437;32;20065;-68
2021/10/30 05:51:01;;;;;;;6.07;5.78;;;;;;;10.49;87.07;99947.97;4415658;32;20887;-70
2021/10/30 05:53:27;;;;;;;4.20;4.00;;;;;;;10.53;87.29;99948.63;4421104;32;20077;-67
2021/10/30 05:55:52;;;;;;;4.45;4.25;;;;;;;10.47;87.42;99939.34;4426122;32;20056;-68
2021/10/30 05:58:18;;;;;;;4.37;4.18;;;;;;;10.47;87.86;99939.34;4423562;32;20552;-67
2021/10/30 06:00:43;;;;;;;4.32;4.12;;;;;;;10.49;87.27;99932.22;4422379;32;20065;-68
2021/10/30 06:03:08;;;;;;;6.30;6.00;;;;;;;10.50;86.97;99939.19;4423152;32;20218;-67
2021/10/30 06:05:34;;;;;;;4.30;4.10;;;;;;;10.33;86.89;99928.91;4419172;32;20096;-68
2021/10/30 06:07:59;;;;;;;5.20;5.00;;;;;;;10.60;86.31;99942.03;4421613;32;20072;-67
2021/10/30 06:10:26;;;;;;;4.47;4.28;;;;;;;10.57;86.23;99943.06;4419207;32;20076;-69
2021/10/30 06:12:51;;;;;;;4.30;4.10;;;;;;;10.61;86.56;99945.50;4421574;32;20685;-71
2021/10/30 06:15:17;;;;;;;4.80;4.60;;;;;;;10.61;86.19;99935.84;4420412;32;20083;-67
2021/10/30 06:17:42;;;;;;;4.40;4.20;;;;;;;10.65;85.41;99939.97;4417388;32;20138;-69
2021/10/30 06:20:08;;;;;;;5.80;5.57;;;;;;;10.65;85.78;99939.97;4424171;32;20071;-69
2021/10/30 06:22:34;;;;;;;4.28;4.07;;;;;;;10.64;85.92;99943.50;4431987;32;20068;-69
2021/10/30 06:24:59;;;;;;;6.15;5.85;;;;;;;10.66;86.05;99935.53;4419240;32;20123;-69
2021/10/30 06:27:25;;;;;;;4.10;3.90;;;;;;;10.70;85.59;99937.03;4425309;32;20261;-70
2021/10/30 06:29:50;;;;;;;5.05;4.80;;;;;;;10.72;85.16;99938.63;4423512;32;20110;-70
2021/10/30 06:32:16;;;;;;;4.28;4.07;;;;;;;10.73;85.70;99937.66;4419367;32;20084;-70
2021/10/30 06:34:41;;;;;;;4.20;4.00;;;;;;;10.74;84.77;99952.50;4423697;32;20685;-70
2021/10/30 06:37:07;;;;;;;5.65;5.45;;;;;;;10.81;84.61;99947.69;4420477;32;20067;-70
2021/10/30 06:39:33;;;;;;;4.25;4.05;;;;;;;10.87;83.75;99954.31;4422152;32;20575;-70
2021/10/30 06:41:58;;;;;;;5.57;5.37;;;;;;;10.91;83.30;99945.28;4425460;32;20106;-70
2021/10/30 06:44:23;;;;;;;4.53;4.32;;;;;;;10.92;83.51;99942.53;4421802;32;20065;-70
2021/10/30 06:46:51;;;;;;;4.60;4.40;;;;;;;10.96;83.24;99943.19;4427874;32;20068;-70
2021/10/30 06:49:16;;;;;;;5.80;5.50;;;;;;;10.94;83.03;99929.31;4421722;32;20198;-69
2021/10/30 06:51:42;;;;;;;4.62;4.43;;;;;;;11.01;81.46;99920.13;4421234;32;20079;-70
2021/10/30 06:54:07;;;;;;;5.82;5.57;;;;;;;10.90;81.20;99907.69;4421294;32;20083;-70
2021/10/30 06:56:36;;;;;;;4.20;4.00;;;;;;;11.09;82.03;99927.50;4424111;32;20130;-70
2021/10/30 06:59:03;;;;;;;6.05;5.75;;;;;;;11.07;80.78;99918.88;4422486;32;20068;-71
2021/10/30 07:01:28;;;;;;;4.35;4.15;;;;;;;11.11;81.17;99926.44;4419744;32;20517;-70
2021/10/30 07:03:53;;;;;;;4.43;4.22;;;;;;;11.07;80.79;99922.31;4421890;32;20072;-70
2021/10/30 07:06:19;;;;;;;4.30;4.10;;;;;;;11.07;81.44;99918.88;4419791;32;20479;-70
2021/10/30 07:08:47;;;;;;;4.30;4.10;;;;;;;11.10;80.79;99927.34;4417783;32;20080;-70
2021/10/30 07:11:12;;;;;;;5.80;5.55;;;;;;;11.11;80.32;99926.44;4423402;32;20816;-74
2021/10/30 07:13:38;;;;;;;4.30;4.10;;;;;;;11.11;80.26;99928.22;4422362;32;20067;-73
2021/10/30 07:16:03;;;;;;;6.45;6.05;;;;;;;11.11;80.05;99922.97;4423524;32;20215;-72
2021/10/30 07:18:29;;;;;;;4.50;4.30;;;;;;;11.13;80.08;99932.41;4421930;32;20065;-71
2021/10/30 07:20:54;;;;;;;4.35;4.15;;;;;;;11.12;80.25;99927.25;4425044;32;20079;-73
2021/10/30 07:23:19;;;;;;;4.32;4.12;;;;;;;11.01;80.78;99906.16;4420059;32;20087;-74
2021/10/30 07:25:45;;;;;;;4.40;4.20;;;;;;;10.98;80.61;99905.41;4422506;32;20092;-72
2021/10/30 07:28:11;;;;;;;5.93;5.62;;;;;;;11.09;81.14;99922.22;4423339;32;20587;-73
2021/10/30 07:30:37;;;;;;;4.80;4.60;;;;;;;11.07;80.91;99924.13;4421148;32;20076;-72
2021/10/30 07:33:02;;;;;;;6.03;5.72;;;;;;;11.05;81.20;99926.00;4420194;32;20141;-72
2021/10/30 07:35:29;;;;;;;4.20;4.00;;;;;;;10.77;81.77;99878.78;4423233;32;20076;-71
2021/10/30 07:37:58;;;;;;;4.47;4.28;;;;;;;10.99;81.56;99919.38;4422329;32;20080;-71
2021/10/30 07:40:24;;;;;;;4.68;4.47;;;;;;;10.97;82.26;99921.25;4423191;32;20095;-68
2021/10/30 07:42:50;;;;;;;4.55;4.35;;;;;;;11.04;81.79;99921.69;4423918;32;20158;-70
2021/10/30 07:45:15;;;;;;;6.25;5.95;;;;;;;10.99;82.35;99919.38;4421529;32;20104;-70
2021/10/30 07:47:40;;;;;;;4.30;4.10;;;;;;;10.97;82.59;99916.00;4423529;32;20078;-68
2021/10/30 07:50:06;;;;;;;7.07;6.53;;;;;;;10.96;82.43;99911.69;4416913;32;20068;-68
2021/10/30 07:52:31;;;;;;;4.40;4.20;;;;;;;10.89;82.92;99911.25;4424465;32;20884;-69
2021/10/30 07:54:57;;;;;;;4.37;4.18;;;;;;;10.89;83.11;99916.50;4420576;32;20557;-69
2021/10/30 07:57:22;;;;;;;4.60;4.40;;;;;;;10.79;83.25;99902.31;4419255;32;20076;-70
2021/10/30 07:59:50;;;;;;;4.47;4.28;;;;;;;10.69;84.13;99893.38;4432812;32;20071;-71
2021/10/30 08:02:15;;;;;;;6.25;5.95;;;;;;;10.42;83.82;99848.78;4425426;32;20084;-71
2021/10/30 08:04:41;;;;;;;4.40;4.20;;;;;;;10.94;83.50;99922.31;4420593;32;20067;-71
2021/10/30 08:07:06;;;;;;;5.05;4.85;;;;;;;10.94;83.78;99914.44;4416343;32;20068;-71
2021/10/30 08:09:31;;;;;;;4.50;4.30;;;;;;;10.92;83.40;99912.84;4419930;32;20179;-72
2021/10/30 08:11:57;;;;;;;4.70;4.50;;;;;;;10.94;83.55;99909.19;4422501;32;20150;-71
2021/10/30 08:14:22;;;;;;;5.72;5.50;;;;;;;10.91;83.35;99909.37;4422504;32;20069;-71
2021/10/30 08:16:47;;;;;;;5.03;4.75;;;;;;;11.00;83.15;99918.41;4420908;32;20084;-72
2021/10/30 08:19:13;;;;;;;6.15;5.85;;;;;;;10.98;83.92;99912.44;4416647;32;20083;-71
2021/10/30 08:21:38;;;;;;;4.55;4.35;;;;;;;11.00;83.88;99915.78;4428324;32;20142;-72
2021/10/30 08:24:04;;;;;;;4.70;4.40;;;;;;;9.91;85.16;99753.22;4414535;32;20084;-70
2021/10/30 08:26:30;;;;;;;6.60;6.20;;;;;;;10.99;85.84;99927.25;4414699;32;20084;-70
2021/10/30 08:28:56;;;;;;;4.70;4.50;;;;;;;10.95;86.19;99931.03;4434694;32;20874;-70
2021/10/30 08:31:22;;;;;;;5.10;4.90;;;;;;;10.94;86.97;99927.56;4418996;32;20183;-71
2021/10/30 08:33:47;;;;;;;4.43;4.22;;;;;;;10.91;87.63;99930.38;4431138;32;20686;-71
2021/10/30 08:36:13;;;;;;;4.50;4.30;;;;;;;10.92;87.25;99920.72;4418985;32;20073;-71
2021/10/30 08:38:38;;;;;;;4.50;4.30;;;;;;;10.88;88.00;99925.31;4415971;32;20213;-71
2021/10/30 08:41:03;;;;;;;4.43;4.22;;;;;;;10.91;88.65;99919.03;4420899;32;20060;-70
2021/10/30 08:43:29;;;;;;;4.30;4.10;;;;;;;10.91;88.92;99916.41;4418992;32;20650;-71
2021/10/30 08:45:57;;;;;;;5.22;5.03;;;;;;;10.94;89.12;99913.56;4417571;32;20211;-71
2021/10/30 08:48:25;;;;;;;5.40;5.20;;;;;;;11.00;89.02;99910.53;4422537;32;20129;-70
2021/10/30 08:50:50;;;;;;;4.45;4.25;;;;;;;10.97;88.83;99901.09;4422165;32;20077;-71
2021/10/30 08:53:15;;;;;;;4.40;4.20;;;;;;;11.09;89.04;99899.44;4424124;32;20084;-71
2021/10/30 08:55:41;;;;;;;4.40;4.20;;;;;;;11.10;88.80;99902.87;4418368;32;20623;-69
2021/10/30 08:58:10;;;;;;;4.70;4.50;;;;;;;11.12;89.48;99895.75;4419520;32;20131;-71
2021/10/30 09:00:40;;;;;;;6.18;5.87;;;;;;;11.13;89.87;99898.28;4412655;32;20107;-69
2021/10/30 09:03:06;;;;;;;4.60;4.40;;;;;;;11.14;89.83;99894.69;4419979;32;20501;-74
2021/10/30 09:05:32;;;;;;;6.05;5.75;;;;;;;9.91;90.08;99690.34;4415490;32;20076;-74
2021/10/30 09:07:59;;;;;;;4.70;4.50;;;;;;;11.22;90.24;99901.22;4419780;32;20751;-75
2021/10/30 09:10:38;;;;;;;5.32;5.07;;;;;;;11.01;90.45;99872.03;4412618;32;20087;-74
2021/10/30 09:13:05;;;;;;;4.60;4.40;;;;;;;11.22;90.86;99902.06;4421465;32;20207;-72
2021/10/30 09:15:34;;;;;;;6.25;5.95;;;;;;;11.25;90.89;99901.03;4412770;32;20565;-74
2021/10/30 09:17:59;;;;;;;4.53;4.32;;;;;;;11.11;90.87;99876.53;4435162;32;20484;-72
2021/10/30 09:20:35;;;;;;;5.43;5.22;;;;;;;11.11;90.89;99875.72;4411086;32;20186;-71
2021/10/30 09:23:00;;;;;;;4.50;4.30;;;;;;;11.19;91.40;99899.66;4420209;32;20079;-71
2021/10/30 09:25:25;;;;;;;5.65;5.43;;;;;;;11.18;91.50;99890.94;4417440;32;20088;-72
2021/10/30 09:28:01;;;;;;;4.68;4.47;;;;;;;11.20;91.62;99890.81;4420031;32;20092;-77
2021/10/30 09:30:33;;;;;;;5.78;5.47;;;;;;;11.23;91.54;99889.78;4414270;32;20083;-75
2021/10/30 09:33:03;;;;;;;5.15;4.95;;;;;;;11.18;92.22;99892.72;4425804;32;21335;-70
2021/10/30 09:35:42;;;;;;;6.87;6.37;;;;;;;10.88;92.12;99829.97;4412616;32;20072;-71
2021/10/30 09:38:29;;;;;;;5.45;5.18;;;;;;;11.24;92.59;99887.03;4410246;32;20139;-73
2021/10/30 09:40:54;;;;;;;4.65;4.45;;;;;;;10.36;91.98;99735.47;4427109;32;20102;-75
2021/10/30 09:43:20;;;;;;;4.50;4.30;;;;;;;11.38;92.35;99880.84;4414603;32;20428;-73
2021/10/30 09:45:48;;;;;;;5.00;4.80;;;;;;;11.44;92.19;99883.06;4415726;32;20236;-75
2021/10/30 09:48:15;;;;;;;4.90;4.60;;;;;;;11.50;92.03;99884.41;4409341;32;20801;-71
2021/10/30 09:50:41;;;;;;;5.65;5.43;;;;;;;11.51;91.86;99871.19;4411595;32;20071;-72
2021/10/30 09:53:26;;;;;;;4.80;4.60;;;;;;;11.65;91.94;99882.53;4415222;32;20114;-73
2021/10/30 09:55:53;;;;;;;4.90;4.70;;;;;;;11.67;91.94;99884.09;4422336;32;20144;-71
2021/10/30 09:58:40;;;;;;;4.78;4.57;;;;;;;11.67;91.40;99891.97;4415481;32;20084;-71
2021/10/30 10:01:10;;;;;;;4.45;4.25;;;;;;;11.74;91.15;99887.13;4425654;32;20095;-72
2021/10/30 10:03:37;;;;;;;5.95;5.68;;;;;;;11.68;91.57;99879.66;4420478;32;20084;-71
2021/10/30 10:06:03;;;;;;;4.70;4.50;;;;;;;11.70;91.95;99881.25;4419977;32;20455;-69
2021/10/30 10:08:29;;;;;;;5.87;5.62;;;;;;;11.67;92.26;99876.22;4422571;32;20061;-69
2021/10/30 10:10:55;;;;;;;4.80;4.60;;;;;;;11.68;91.73;99871.78;4437850;32;20082;-69
2021/10/30 10:13:21;;;;;;;4.50;4.30;;;;;;;11.65;90.89;99869.41;4421968;32;20087;-69
2021/10/30 10:15:47;;;;;;;4.60;4.40;;;;;;;11.62;89.43;99859.09;4421781;32;20068;-70
2021/10/30 10:18:12;;;;;;;4.47;4.28;;;;;;;11.55;89.27;99867.41;4421138;32;20087;-69
2021/10/30 10:20:37;;;;;;;6.00;5.70;;;;;;;11.37;89.44;99822.22;4417422;32;20056;-71
2021/10/30 10:23:03;;;;;;;4.60;4.40;;;;;;;11.29;88.02;99814.03;4435798;32;20061;-73
2021/10/30 10:25:32;;;;;;;5.18;4.97;;;;;;;11.58;88.35;99856.66;4421186;32;20186;-72
2021/10/30 10:28:27;;;;;;;5.18;4.97;;;;;;;11.55;87.89;99856.87;4426775;32;20175;-73
2021/10/30 10:31:09;;;;;;;4.30;4.10;;;;;;;11.48;88.17;99850.34;4439087;32;20088;-74
2021/10/30 10:33:35;;;;;;;5.85;5.60;;;;;;;11.46;88.87;99851.44;4423825;32;20103;-73
2021/10/30 10:36:20;;;;;;;4.40;4.20;;;;;;;11.32;88.36;99815.59;4418009;32;20073;-73
2021/10/30 10:38:57;;;;;;;4.43;4.22;;;;;;;11.45;88.41;99855.00;4423153;32;20389;-73
2021/10/30 10:41:38;;;;;;;4.50;4.30;;;;;;;11.33;89.01;99839.13;4440278;32;20459;-73
2021/10/30 10:44:04;;;;;;;4.72;4.53;;;;;;;11.33;89.60;99833.87;4453270;32;20084;-73
2021/10/30 10:46:30;;;;;;;5.57;5.37;;;;;;;11.30;89.47;99839.34;4425041;32;20072;-75
2021/10/30 10:49:15;;;;;;;4.25;4.05;;;;;;;11.33;89.49;99844.41;4423746;32;20200;-73
2021/10/30 10:51:47;;;;;;;6.35;6.05;;;;;;;10.83;89.73;99746.31;4420425;32;20135;-73
2021/10/30 10:54:14;;;;;;;4.30;4.10;;;;;;;11.26;89.87;99816.03;4416891;32;20056;-73
2021/10/30 10:57:19;;;;;;;5.72;5.47;;;;;;;11.28;90.59;99819.38;4422761;32;20072;-73
2021/10/30 10:59:44;;;;;;;4.40;4.20;;;;;;;11.41;90.33;99824.66;4429862;32;20356;-73
2021/10/30 11:02:17;;;;;;;4.45;4.25;;;;;;;11.40;90.87;99831.66;4422387;32;20191;-73
2021/10/30 11:05:08;;;;;;;5.65;5.25;;;;;;;11.12;90.92;99767.09;4419290;32;20310;-73
2021/10/30 11:07:35;;;;;;;4.60;4.40;;;;;;;11.43;90.54;99823.59;4442767;32;20167;-73
2021/10/30 11:10:00;;;;;;;5.97;5.68;;;;;;;11.48;90.80;99828.50;4434009;32;20072;-73
2021/10/30 11:12:26;;;;;;;4.32;4.12;;;;;;;11.33;90.77;99812.03;4424008;32;20091;-73
2021/10/30 11:15:19;;;;;;;5.95;5.65;;;;;;;11.32;91.93;99799.84;4434644;32;20133;-74
2021/10/30 11:17:52;;;;;;;4.32;4.12;;;;;;;11.42;91.08;99818.44;4420969;32;20060;-73
2021/10/30 11:20:18;;;;;;;4.65;4.45;;;;;;;11.16;92.04;99772.03;4428230;32;20064;-75
2021/10/30 11:23:01;;;;;;;4.40;4.20;;;;;;;11.34;91.09;99800.56;4421858;32;20091;-77
2021/10/30 11:25:29;;;;;;;4.35;4.15;;;;;;;11.12;90.78;99765.28;4419270;32;20115;-75
2021/10/30 11:27:55;;;;;;;5.90;5.60;;;;;;;11.37;90.55;99811.72;4420852;32;20115;-76